Time;durP1;ratioP1;P1;durP2;ratioP2;P2;SDS_P1;SDS_P2;PMS_P1;PMS_P2;Temp;Humidity;BMP_temperature;BMP_pressure;BME280_temperature;BME280_humidity;BME280_pressure;Samples;Min_cycle;Max_cycle;Signal;HPM_P1;HPM_P2
2023/09/12 00:00:47;;;;;;;9.67;8.33;;;24.00;81.10;;;;;;5036740;28;20510;-70
2023/09/12 00:03:19;;;;;;;9.50;8.50;;;24.10;81.20;;;;;;5038426;28;20470;-69
2023/09/12 00:05:51;;;;;;;8.70;7.90;;;24.10;81.20;;;;;;5037387;28;20461;-70
2023/09/12 00:08:18;;;;;;;9.17;8.37;;;24.20;81.00;;;;;;5038311;28;20439;-70
2023/09/12 00:10:45;;;;;;;11.80;10.07;;;24.30;81.00;;;;;;5037399;28;20828;-70
2023/09/12 00:13:12;;;;;;;11.00;9.90;;;24.30;81.00;;;;;;5037173;28;20497;-69
2023/09/12 00:15:39;;;;;;;12.20;9.10;;;24.30;81.20;;;;;;5037195;28;20478;-70
2023/09/12 00:18:06;;;;;;;12.30;9.67;;;24.40;81.40;;;;;;5037103;28;20846;-69
2023/09/12 00:20:34;;;;;;;11.20;10.00;;;24.40;81.20;;;;;;5037122;28;20443;-69
2023/09/12 00:23:01;;;;;;;16.57;11.00;;;24.40;80.90;;;;;;5036719;28;20477;-70
2023/09/12 00:25:27;;;;;;;11.47;10.37;;;24.40;80.90;;;;;;5035424;28;20442;-70
2023/09/12 00:27:54;;;;;;;12.43;11.30;;;24.40;81.00;;;;;;5035923;28;20970;-70
2023/09/12 00:30:21;;;;;;;13.70;11.73;;;24.40;81.20;;;;;;5036200;28;20451;-69
2023/09/12 00:32:47;;;;;;;12.90;11.60;;;24.40;81.30;;;;;;5036012;28;20470;-70
2023/09/12 00:35:14;;;;;;;13.23;11.93;;;24.40;81.00;;;;;;5035940;28;20493;-70
2023/09/12 00:37:42;;;;;;;14.63;12.73;;;24.30;81.00;;;;;;5035902;28;20443;-70
2023/09/12 00:40:10;;;;;;;16.10;14.40;;;24.20;81.70;;;;;;5036164;28;20465;-70
2023/09/12 00:42:36;;;;;;;14.27;12.87;;;24.10;82.20;;;;;;5036323;28;20471;-70
2023/09/12 00:45:03;;;;;;;13.20;11.80;;;24.00;82.60;;;;;;5036148;28;20944;-70
2023/09/12 00:47:31;;;;;;;14.30;12.93;;;24.00;83.10;;;;;;5036079;28;20446;-70
2023/09/12 00:50:00;;;;;;;13.33;12.03;;;23.90;83.60;;;;;;5036622;28;20449;-70
2023/09/12 00:52:28;;;;;;;13.30;11.40;;;23.80;83.90;;;;;;5036425;28;20462;-69
2023/09/12 00:54:57;;;;;;;15.17;11.43;;;23.80;84.30;;;;;;5035220;28;20485;-68
2023/09/12 00:57:24;;;;;;;14.33;13.00;;;23.80;84.90;;;;;;5034706;28;20500;-68
2023/09/12 00:59:52;;;;;;;16.30;13.93;;;23.90;86.20;;;;;;5034966;28;20524;-68
2023/09/12 01:02:20;;;;;;;21.70;14.13;;;23.90;86.40;;;;;;5035267;28;20458;-68
2023/09/12 01:04:48;;;;;;;19.70;14.70;;;23.80;86.50;;;;;;5035528;28;20450;-69
2023/09/12 01:07:15;;;;;;;15.77;14.27;;;23.70;87.00;;;;;;5035334;28;20962;-68
2023/09/12 01:09:44;;;;;;;17.30;15.50;;;23.70;87.50;;;;;;5034381;28;20852;-69
2023/09/12 01:12:14;;;;;;;16.40;14.60;;;23.60;87.90;;;;;;5035422;28;20447;-68
2023/09/12 01:14:42;;;;;;;20.07;16.13;;;23.50;88.50;;;;;;5035322;28;20799;-68
2023/09/12 01:17:09;;;;;;;18.70;14.53;;;23.40;89.30;;;;;;5035961;28;20479;-69
2023/09/12 01:19:36;;;;;;;20.13;17.40;;;23.40;90.00;;;;;;5036651;28;20442;-68
2023/09/12 01:22:45;;;;;;;20.33;16.67;;;23.40;90.10;;;;;;5036493;28;20450;-68
2023/09/12 01:25:31;;;;;;;18.27;16.27;;;23.40;90.30;;;;;;5020761;28;20438;-69
2023/09/12 01:28:03;;;;;;;18.80;16.90;;;23.50;90.40;;;;;;5034999;28;20435;-69
2023/09/12 01:30:33;;;;;;;20.67;17.03;;;23.50;90.40;;;;;;5040310;28;20469;-68
2023/09/12 01:33:01;;;;;;;20.07;17.87;;;23.50;90.30;;;;;;5039172;28;20459;-68
2023/09/12 01:35:28;;;;;;;18.73;16.70;;;23.60;90.40;;;;;;5036160;28;20486;-69
2023/09/12 01:37:55;;;;;;;18.10;16.20;;;23.60;90.40;;;;;;5039502;28;20454;-70
2023/09/12 01:40:33;;;;;;;18.83;16.93;;;23.70;90.50;;;;;;5046243;28;20442;-69
2023/09/12 01:43:04;;;;;;;17.77;15.90;;;23.70;90.50;;;;;;5041832;28;20473;-69
2023/09/12 01:45:32;;;;;;;17.20;15.50;;;23.70;90.30;;;;;;5040379;28;20423;-69
2023/09/12 01:48:00;;;;;;;18.37;16.57;;;23.70;90.20;;;;;;5039097;28;20446;-69
2023/09/12 01:50:29;;;;;;;18.30;16.40;;;23.70;90.10;;;;;;5041909;28;20478;-69
2023/09/12 01:52:56;;;;;;;17.83;16.13;;;23.70;90.10;;;;;;5041353;28;20979;-69
2023/09/12 01:55:23;;;;;;;17.23;15.60;;;23.60;90.20;;;;;;5040391;28;20508;-69
2023/09/12 01:57:50;;;;;;;19.60;17.60;;;23.60;90.20;;;;;;5039753;28;20891;-69
2023/09/12 02:00:20;;;;;;;22.40;19.50;;;23.50;90.20;;;;;;5040262;28;20457;-69
2023/09/12 02:02:47;;;;;;;23.03;19.60;;;23.40;90.40;;;;;;5039562;28;20885;-68
2023/09/12 02:05:18;;;;;;;23.80;19.80;;;23.30;90.80;;;;;;5039874;28;20473;-69
2023/09/12 02:07:45;;;;;;;19.60;17.70;;;23.20;91.20;;;;;;5039042;28;20438;-69
2023/09/12 02:10:13;;;;;;;20.87;18.77;;;23.20;91.50;;;;;;5039052;28;20438;-69
2023/09/12 02:12:40;;;;;;;21.73;19.57;;;23.30;91.70;;;;;;5038888;28;20462;-69
2023/09/12 02:15:08;;;;;;;21.00;19.00;;;23.20;91.80;;;;;;5039110;28;20445;-69
2023/09/12 02:17:38;;;;;;;19.17;17.17;;;23.20;91.70;;;;;;5038848;28;20469;-69
2023/09/12 02:20:06;;;;;;;20.40;18.40;;;23.30;91.70;;;;;;5039730;28;20461;-69
2023/09/12 02:22:33;;;;;;;21.07;18.70;;;23.30;91.70;;;;;;5039135;28;20461;-69
2023/09/12 02:25:00;;;;;;;18.40;16.50;;;23.40;91.60;;;;;;5038583;28;20886;-69
2023/09/12 02:27:26;;;;;;;20.70;18.80;;;23.40;91.50;;;;;;5038278;28;20457;-69
2023/09/12 02:29:55;;;;;;;19.17;16.67;;;23.40;91.60;;;;;;5038186;28;20457;-68
2023/09/12 02:32:21;;;;;;;18.20;16.30;;;23.40;91.50;;;;;;5037854;28;20471;-69
2023/09/12 02:34:49;;;;;;;18.70;16.70;;;23.40;91.50;;;;;;5038100;28;20455;-70
2023/09/12 02:37:16;;;;;;;20.07;17.97;;;23.40;91.60;;;;;;5038445;28;20467;-69
2023/09/12 02:39:43;;;;;;;21.97;19.63;;;23.50;91.70;;;;;;5038132;28;20451;-69
2023/09/12 02:42:10;;;;;;;20.20;18.10;;;23.50;91.70;;;;;;5036866;28;20446;-70
2023/09/12 02:44:37;;;;;;;21.87;19.57;;;23.50;91.70;;;;;;5038008;28;20819;-69
2023/09/12 02:47:04;;;;;;;22.00;19.43;;;23.40;91.70;;;;;;5038003;28;20447;-69
2023/09/12 02:49:31;;;;;;;19.60;17.60;;;23.40;91.70;;;;;;5037984;28;20473;-69
2023/09/12 02:52:00;;;;;;;23.17;20.77;;;23.30;91.70;;;;;;5038477;28;20453;-69
2023/09/12 02:54:26;;;;;;;21.70;19.40;;;23.30;91.80;;;;;;5037961;28;20457;-69
2023/09/12 02:56:53;;;;;;;21.90;19.70;;;23.30;91.90;;;;;;5038408;28;20513;-69
2023/09/12 02:59:21;;;;;;;22.80;20.50;;;23.20;92.00;;;;;;5038612;28;20447;-69
2023/09/12 03:01:48;;;;;;;21.80;19.80;;;23.20;92.20;;;;;;5042728;28;20447;-69
2023/09/12 03:04:15;;;;;;;20.50;18.30;;;23.10;92.30;;;;;;5042202;28;20470;-69
2023/09/12 03:06:43;;;;;;;21.00;19.00;;;23.10;92.40;;;;;;5042110;28;20443;-70
2023/09/12 03:09:14;;;;;;;21.67;19.50;;;23.10;92.40;;;;;;5041633;28;20470;-69
2023/09/12 03:11:41;;;;;;;23.27;20.87;;;23.00;92.40;;;;;;5041544;28;20431;-69
2023/09/12 03:14:07;;;;;;;22.00;19.70;;;23.00;92.30;;;;;;5040837;28;20470;-69
2023/09/12 03:16:36;;;;;;;21.33;19.23;;;23.00;92.30;;;;;;5040690;28;20482;-69
2023/09/12 03:19:02;;;;;;;21.13;18.80;;;23.00;92.30;;;;;;5040223;28;20473;-68
2023/09/12 03:21:29;;;;;;;22.67;20.30;;;22.90;92.30;;;;;;5039344;28;20453;-69
2023/09/12 03:23:56;;;;;;;20.53;18.10;;;22.90;92.40;;;;;;5039450;28;20463;-69
2023/09/12 03:26:24;;;;;;;19.63;17.53;;;23.00;92.40;;;;;;5038184;28;20831;-69
2023/09/12 03:28:51;;;;;;;22.40;20.10;;;23.00;92.30;;;;;;5038639;28;20447;-69
2023/09/12 03:31:18;;;;;;;19.27;17.37;;;23.00;92.40;;;;;;5038401;28;20817;-68
2023/09/12 03:33:49;;;;;;;17.57;15.73;;;23.10;92.40;;;;;;5038828;28;20463;-69
2023/09/12 03:36:17;;;;;;;19.20;17.30;;;23.10;92.30;;;;;;5037435;28;20517;-69
2023/09/12 03:38:44;;;;;;;23.13;17.27;;;23.10;92.30;;;;;;5037703;28;20875;-69
2023/09/12 03:41:11;;;;;;;19.00;17.00;;;23.10;92.30;;;;;;5038389;28;20446;-69
2023/09/12 03:43:39;;;;;;;21.10;18.20;;;23.10;92.20;;;;;;5037561;28;20980;-68
2023/09/12 03:46:06;;;;;;;21.87;19.57;;;23.10;92.30;;;;;;5037992;28;20450;-69
2023/09/12 03:48:35;;;;;;;22.27;20.00;;;23.10;92.20;;;;;;5038611;28;20442;-69
2023/09/12 03:51:03;;;;;;;22.70;20.30;;;23.10;92.20;;;;;;5038967;28;20450;-69
2023/09/12 03:53:30;;;;;;;21.90;19.13;;;23.00;92.20;;;;;;5038746;28;20463;-68
2023/09/12 03:55:58;;;;;;;20.90;18.80;;;23.00;92.30;;;;;;5038249;28;20478;-69
2023/09/12 03:58:25;;;;;;;23.07;20.40;;;22.90;92.40;;;;;;5041942;28;20840;-69
2023/09/12 04:00:54;;;;;;;22.83;20.30;;;22.90;92.60;;;;;;5042418;28;20812;-69
2023/09/12 04:03:22;;;;;;;22.17;19.90;;;22.90;92.60;;;;;;5044240;28;20498;-68
2023/09/12 04:05:49;;;;;;;22.73;19.40;;;22.90;92.70;;;;;;5042912;28;20456;-69
2023/09/12 04:08:16;;;;;;;23.03;20.67;;;22.90;92.60;;;;;;5042144;28;20453;-69
2023/09/12 04:10:44;;;;;;;23.43;20.03;;;22.90;92.60;;;;;;5041145;28;20457;-69
2023/09/12 04:13:11;;;;;;;22.93;20.50;;;22.80;92.70;;;;;;5039165;28;20533;-69
2023/09/12 04:15:39;;;;;;;20.43;18.30;;;22.80;92.80;;;;;;5039329;28;20449;-69
2023/09/12 04:18:08;;;;;;;21.40;19.20;;;22.80;92.80;;;;;;5041752;28;20443;-69
2023/09/12 04:20:35;;;;;;;22.07;18.90;;;22.80;92.80;;;;;;5040743;28;20446;-69
2023/09/12 04:23:03;;;;;;;22.00;19.70;;;22.70;92.90;;;;;;5039907;28;20466;-68
2023/09/12 04:25:30;;;;;;;24.10;21.63;;;22.70;92.90;;;;;;5037431;28;20478;-69
2023/09/12 04:27:56;;;;;;;28.63;23.87;;;22.70;93.20;;;;;;5036063;28;20453;-69
2023/09/12 04:30:23;;;;;;;24.77;22.30;;;22.60;93.40;;;;;;5038768;28;20454;-69
2023/09/12 04:32:50;;;;;;;22.80;20.27;;;22.60;93.60;;;;;;5039207;28;20482;-69
2023/09/12 04:35:19;;;;;;;23.80;21.03;;;22.60;93.80;;;;;;5038314;28;20454;-69
2023/09/12 04:37:46;;;;;;;24.97;21.83;;;22.60;93.90;;;;;;5037956;28;21021;-69
2023/09/12 04:40:14;;;;;;;27.33;21.30;;;22.60;93.90;;;;;;5037878;28;20446;-69
2023/09/12 04:42:41;;;;;;;23.53;21.00;;;22.60;93.90;;;;;;5037516;28;20466;-68
2023/09/12 04:45:08;;;;;;;24.37;21.20;;;22.60;93.90;;;;;;5037286;28;20453;-69
2023/09/12 04:47:35;;;;;;;22.57;19.50;;;22.60;93.80;;;;;;5036881;28;20445;-69
2023/09/12 04:50:02;;;;;;;25.00;22.40;;;22.50;93.80;;;;;;5036435;28;20457;-70
2023/09/12 04:52:32;;;;;;;25.50;22.83;;;22.50;93.80;;;;;;5036669;28;20516;-69
2023/09/12 04:54:59;;;;;;;25.77;23.10;;;22.50;93.90;;;;;;5036298;28;20537;-69
2023/09/12 04:57:25;;;;;;;25.20;22.60;;;22.40;94.10;;;;;;5036135;28;20894;-69
2023/09/12 04:59:53;;;;;;;27.10;22.07;;;22.30;94.40;;;;;;5037122;28;20836;-70
2023/09/12 05:02:20;;;;;;;26.33;23.53;;;22.20;94.60;;;;;;5036039;28;20467;-70
2023/09/12 05:04:46;;;;;;;25.57;22.93;;;22.20;94.90;;;;;;5036255;28;20497;-70
2023/09/12 05:07:13;;;;;;;28.77;24.27;;;22.20;95.10;;;;;;5036034;28;20534;-70
2023/09/12 05:09:44;;;;;;;27.30;23.43;;;22.10;95.40;;;;;;5034702;28;20455;-69
2023/09/12 05:12:11;;;;;;;28.33;23.57;;;22.10;95.80;;;;;;5036219;28;20836;-69
2023/09/12 05:14:38;;;;;;;26.30;23.50;;;22.00;96.10;;;;;;5035850;28;20442;-69
2023/09/12 05:17:06;;;;;;;28.40;25.30;;;22.00;96.30;;;;;;5035694;28;20485;-69
2023/09/12 05:19:33;;;;;;;28.50;23.90;;;22.10;96.50;;;;;;5035713;28;20443;-69
2023/09/12 05:22:00;;;;;;;26.83;24.10;;;22.10;96.80;;;;;;5035095;28;21001;-69
2023/09/12 05:24:26;;;;;;;29.63;23.90;;;22.10;96.60;;;;;;5038740;28;20446;-69
2023/09/12 05:26:55;;;;;;;28.20;24.47;;;22.10;96.80;;;;;;5038177;28;20439;-69
2023/09/12 05:29:22;;;;;;;30.60;25.13;;;22.10;96.90;;;;;;5038967;28;20948;-69
2023/09/12 05:31:49;;;;;;;29.07;25.33;;;22.10;97.00;;;;;;5039018;28;20449;-68
2023/09/12 05:34:16;;;;;;;32.50;27.50;;;21.90;97.40;;;;;;5038617;28;20474;-68
2023/09/12 05:36:42;;;;;;;26.77;22.07;;;21.60;98.20;;;;;;5039151;28;20926;-65
2023/09/12 05:39:09;;;;;;;29.33;26.20;;;21.40;98.90;;;;;;5039764;28;20458;-66
2023/09/12 05:41:36;;;;;;;33.60;22.20;;;21.30;99.80;;;;;;5039389;28;21005;-66
2023/09/12 05:44:05;;;;;;;33.50;24.93;;;21.30;99.90;;;;;;5037504;28;20471;-66
2023/09/12 05:46:32;;;;;;;31.73;25.50;;;21.20;99.90;;;;;;5038194;28;20438;-67
2023/09/12 05:48:58;;;;;;;21.73;18.87;;;21.30;99.90;;;;;;5037289;28;20940;-68
2023/09/12 05:51:25;;;;;;;14.13;11.80;;;21.30;99.90;;;;;;5038437;28;20446;-67
2023/09/12 05:53:52;;;;;;;14.90;13.27;;;21.40;99.90;;;;;;5038139;28;20478;-67
2023/09/12 05:56:21;;;;;;;14.93;13.13;;;21.40;99.90;;;;;;5038278;28;20529;-67
2023/09/12 05:58:50;;;;;;;16.83;14.03;;;21.50;99.90;;;;;;5038312;28;20446;-68
2023/09/12 06:01:18;;;;;;;18.63;16.70;;;21.60;99.90;;;;;;5037100;28;20877;-67
2023/09/12 06:03:44;;;;;;;19.97;17.63;;;21.60;99.90;;;;;;5038394;28;20466;-68
2023/09/12 06:06:11;;;;;;;19.20;17.40;;;21.70;99.90;;;;;;5037804;28;20446;-68
2023/09/12 06:08:38;;;;;;;17.43;15.50;;;21.80;99.90;;;;;;5038134;28;20446;-68
2023/09/12 06:11:05;;;;;;;17.80;16.00;;;21.80;99.90;;;;;;5039036;28;20450;-69
2023/09/12 06:13:32;;;;;;;19.30;16.40;;;21.90;99.80;;;;;;5038685;28;20466;-68
2023/09/12 06:15:59;;;;;;;16.03;13.63;;;21.90;99.60;;;;;;5049977;28;20451;-68
2023/09/12 06:18:29;;;;;;;16.30;14.60;;;22.00;99.50;;;;;;5046636;28;20482;-69
2023/09/12 06:20:56;;;;;;;14.53;13.03;;;22.10;99.40;;;;;;5041544;28;20453;-69
2023/09/12 06:23:23;;;;;;;14.80;13.40;;;22.20;99.40;;;;;;5041631;28;20473;-68
2023/09/12 06:25:51;;;;;;;16.03;14.50;;;22.20;99.30;;;;;;5039953;28;20509;-68
2023/09/12 06:28:26;;;;;;;16.33;14.73;;;22.30;99.20;;;;;;5038376;28;20446;-67
2023/09/12 06:30:53;;;;;;;19.53;14.83;;;22.30;99.10;;;;;;5038050;28;20453;-66
2023/09/12 06:33:19;;;;;;;15.70;14.20;;;22.30;99.20;;;;;;5037811;28;20470;-67
2023/09/12 06:35:52;;;;;;;16.70;15.00;;;22.30;99.10;;;;;;5037150;28;20492;-68
2023/09/12 06:38:19;;;;;;;14.63;13.30;;;22.40;99.10;;;;;;5037436;28;20513;-68
2023/09/12 06:40:48;;;;;;;16.37;14.77;;;22.40;99.10;;;;;;5040938;28;20453;-69
2023/09/12 06:43:15;;;;;;;16.33;14.73;;;22.40;99.00;;;;;;5045543;28;20466;-68
2023/09/12 06:45:42;;;;;;;17.17;15.60;;;22.40;98.80;;;;;;5044964;28;20443;-69
2023/09/12 06:48:08;;;;;;;17.30;15.50;;;22.50;98.90;;;;;;5042785;28;20485;-69
2023/09/12 06:50:37;;;;;;;17.67;15.50;;;22.50;98.80;;;;;;5043468;28;20449;-68
2023/09/12 06:53:08;;;;;;;15.67;14.00;;;22.60;98.80;;;;;;5041943;28;20479;-68
2023/09/12 06:55:35;;;;;;;15.93;14.30;;;22.60;98.70;;;;;;5042696;28;20854;-68
2023/09/12 06:58:01;;;;;;;15.83;14.07;;;22.70;98.60;;;;;;5041415;28;20529;-68
2023/09/12 07:00:28;;;;;;;17.57;15.87;;;22.70;98.40;;;;;;5040931;28;20489;-69
2023/09/12 07:02:55;;;;;;;18.00;16.40;;;22.80;98.30;;;;;;5041164;28;20482;-68
2023/09/12 07:05:22;;;;;;;17.37;15.57;;;22.80;98.20;;;;;;5039771;28;20817;-69
2023/09/12 07:07:49;;;;;;;16.50;14.87;;;22.90;98.20;;;;;;5038405;28;20450;-69
2023/09/12 07:10:17;;;;;;;15.70;14.30;;;23.00;98.20;;;;;;5038570;28;20936;-68
2023/09/12 07:12:43;;;;;;;16.17;14.47;;;23.10;98.10;;;;;;5039267;28;20470;-69
2023/09/12 07:15:11;;;;;;;15.70;14.20;;;23.10;98.00;;;;;;5038955;28;20442;-69
2023/09/12 07:17:38;;;;;;;17.03;15.23;;;23.20;98.00;;;;;;5037161;28;20902;-69
2023/09/12 07:20:11;;;;;;;17.00;15.20;;;23.40;98.00;;;;;;5038432;28;20454;-69
2023/09/12 07:22:38;;;;;;;18.00;16.30;;;23.50;98.10;;;;;;5036939;28;20474;-68
2023/09/12 07:25:05;;;;;;;17.33;15.73;;;23.60;98.00;;;;;;5038118;28;20442;-69
2023/09/12 07:27:33;;;;;;;16.13;13.90;;;23.80;97.80;;;;;;5037639;28;20478;-69
2023/09/12 07:30:01;;;;;;;14.20;12.83;;;23.90;97.60;;;;;;5040826;28;20442;-69
2023/09/12 07:32:29;;;;;;;15.07;13.63;;;24.00;97.30;;;;;;5039786;28;20470;-68
2023/09/12 07:34:56;;;;;;;14.17;12.83;;;24.10;97.00;;;;;;5037761;28;20457;-69
2023/09/12 07:37:23;;;;;;;15.20;13.80;;;24.10;97.00;;;;;;5038767;28;20481;-69
2023/09/12 07:39:49;;;;;;;16.67;15.13;;;24.30;96.60;;;;;;5038445;28;20963;-68
2023/09/12 07:42:16;;;;;;;15.00;13.80;;;24.30;96.10;;;;;;5038162;28;20457;-72
2023/09/12 07:44:44;;;;;;;19.73;17.93;;;24.40;95.90;;;;;;5036177;28;20450;-72
2023/09/12 07:47:11;;;;;;;20.07;18.27;;;24.40;95.60;;;;;;5038373;28;20443;-71
2023/09/12 07:49:38;;;;;;;21.00;18.90;;;24.50;95.60;;;;;;5038917;28;20820;-72
2023/09/12 07:52:05;;;;;;;22.47;20.20;;;24.60;95.60;;;;;;5038944;28;20504;-71
2023/09/12 07:54:32;;;;;;;25.10;22.70;;;24.60;95.20;;;;;;5038670;28;20493;-72
2023/09/12 07:56:59;;;;;;;19.33;17.10;;;24.70;95.00;;;;;;5038428;28;20893;-72
2023/09/12 07:59:26;;;;;;;23.60;21.33;;;24.70;94.80;;;;;;5038497;28;20846;-77
2023/09/12 08:01:54;;;;;;;23.77;21.50;;;24.80;94.70;;;;;;5037435;28;20455;-69
2023/09/12 08:04:21;;;;;;;23.53;21.43;;;24.80;94.60;;;;;;5036533;28;20466;-69
2023/09/12 08:06:48;;;;;;;22.67;20.50;;;24.80;94.40;;;;;;5036211;28;20935;-70
2023/09/12 08:09:14;;;;;;;20.93;18.87;;;24.80;94.30;;;;;;5035638;28;20500;-70
2023/09/12 08:11:41;;;;;;;23.83;21.47;;;24.90;94.20;;;;;;5037680;28;20458;-69
2023/09/12 08:14:08;;;;;;;21.87;19.70;;;24.90;94.30;;;;;;5037492;28;20474;-69
2023/09/12 08:16:35;;;;;;;18.80;17.00;;;25.00;94.10;;;;;;5035664;28;20497;-70
2023/09/12 08:19:03;;;;;;;18.57;16.87;;;25.10;94.10;;;;;;5036815;28;20497;-70
2023/09/12 08:21:30;;;;;;;17.20;15.50;;;25.20;94.00;;;;;;5036861;28;20442;-70
2023/09/12 08:23:57;;;;;;;16.87;15.17;;;25.30;93.30;;;;;;5036859;28;20494;-69
2023/09/12 08:26:23;;;;;;;15.10;13.53;;;25.20;92.90;;;;;;5036970;28;20453;-70
2023/09/12 08:28:50;;;;;;;13.87;12.57;;;25.20;92.90;;;;;;5036684;28;20435;-70
2023/09/12 08:31:17;;;;;;;16.00;14.40;;;25.20;92.70;;;;;;5036263;28;20446;-69
2023/09/12 08:33:44;;;;;;;15.40;14.00;;;25.30;92.90;;;;;;5036407;28;20466;-69
2023/09/12 08:36:12;;;;;;;14.83;13.50;;;25.40;93.00;;;;;;5049740;28;20954;-70
2023/09/12 08:38:38;;;;;;;13.37;12.13;;;25.50;92.90;;;;;;5045083;28;20478;-69
2023/09/12 08:41:07;;;;;;;12.53;11.43;;;25.60;92.20;;;;;;5042364;28;20442;-69
2023/09/12 08:43:35;;;;;;;15.63;14.00;;;25.70;92.10;;;;;;5040394;28;20478;-75
2023/09/12 08:46:02;;;;;;;14.83;13.40;;;25.80;92.10;;;;;;5038316;28;20447;-70
2023/09/12 08:48:31;;;;;;;15.37;13.97;;;25.90;92.00;;;;;;5038127;28;20438;-70
2023/09/12 08:50:59;;;;;;;13.40;12.10;;;26.00;92.00;;;;;;5037145;28;20453;-70
2023/09/12 08:53:27;;;;;;;13.63;12.53;;;26.20;91.90;;;;;;5036747;28;20466;-70
2023/09/12 08:55:54;;;;;;;10.63;9.60;;;26.30;91.10;;;;;;5036235;28;20443;-70
2023/09/12 08:58:22;;;;;;;9.70;8.90;;;26.50;90.20;;;;;;5035051;28;20478;-70
2023/09/12 09:00:49;;;;;;;9.47;8.60;;;26.70;90.10;;;;;;5035958;28;20442;-70
2023/09/12 09:03:17;;;;;;;10.03;9.10;;;27.00;88.50;;;;;;5035569;28;20541;-69
2023/09/12 09:05:45;;;;;;;13.70;12.30;;;27.30;86.50;;;;;;5036393;28;20451;-71
2023/09/12 09:08:13;;;;;;;13.37;12.20;;;27.60;86.00;;;;;;5036018;28;20857;-71
2023/09/12 09:10:56;;;;;;;13.90;12.60;;;27.60;85.00;;;;;;5036194;28;20446;-71
2023/09/12 09:13:22;;;;;;;11.77;10.67;;;27.80;84.30;;;;;;5035812;28;20470;-70
2023/09/12 09:15:49;;;;;;;13.20;12.10;;;27.80;82.40;;;;;;5035874;28;20442;-71
2023/09/12 09:18:16;;;;;;;13.20;12.07;;;27.90;82.10;;;;;;5035264;28;20482;-71
2023/09/12 09:20:45;;;;;;;13.00;11.90;;;28.20;82.00;;;;;;5035600;28;20454;-71
2023/09/12 09:23:13;;;;;;;12.10;11.10;;;28.50;80.20;;;;;;5035690;28;20478;-70
2023/09/12 09:25:43;;;;;;;13.00;11.70;;;28.90;78.00;;;;;;5034646;28;20447;-70
2023/09/12 09:28:18;;;;;;;8.40;7.73;;;29.20;76.90;;;;;;5035528;28;20431;-70
2023/09/12 09:30:47;;;;;;;11.00;9.90;;;29.40;75.10;;;;;;5035110;28;20437;-70
2023/09/12 09:33:16;;;;;;;12.00;10.90;;;29.60;73.90;;;;;;5035094;28;20987;-70
2023/09/12 09:35:44;;;;;;;13.87;12.57;;;29.80;73.20;;;;;;5035122;28;20477;-70
2023/09/12 09:38:16;;;;;;;10.40;9.53;;;30.00;73.20;;;;;;5034084;28;20482;-70
2023/09/12 09:40:44;;;;;;;10.50;9.47;;;30.10;71.50;;;;;;5035644;28;20438;-71
2023/09/12 09:43:14;;;;;;;13.87;12.67;;;30.20;70.60;;;;;;5035174;28;20469;-70
2023/09/12 09:45:45;;;;;;;12.67;11.40;;;30.40;69.50;;;;;;5035273;28;20446;-71
2023/09/12 09:48:19;;;;;;;13.90;12.67;;;30.60;68.40;;;;;;5034811;28;20480;-71
2023/09/12 09:50:46;;;;;;;15.77;14.40;;;30.80;67.70;;;;;;5035312;28;20427;-71
2023/09/12 09:53:12;;;;;;;12.67;11.57;;;31.00;66.60;;;;;;5034591;28;20979;-70
2023/09/12 09:55:42;;;;;;;11.43;10.47;;;31.20;65.30;;;;;;5035308;28;20446;-71
2023/09/12 09:58:16;;;;;;;12.30;11.30;;;31.30;63.20;;;;;;5034423;28;20481;-71
2023/09/12 10:00:47;;;;;;;10.57;9.60;;;31.30;62.00;;;;;;5034601;28;20435;-70
2023/09/12 10:03:19;;;;;;;11.77;10.77;;;31.50;62.00;;;;;;5035260;28;20474;-71
2023/09/12 10:05:51;;;;;;;11.60;10.60;;;31.60;60.60;;;;;;5035365;28;20437;-71
2023/09/12 10:08:20;;;;;;;10.30;9.20;;;31.60;59.70;;;;;;5033710;28;20434;-71
2023/09/12 10:10:48;;;;;;;16.50;11.70;;;31.60;59.60;;;;;;5038149;28;20450;-71
2023/09/12 10:13:19;;;;;;;8.77;7.97;;;31.80;59.40;;;;;;5038565;28;20472;-71
2023/09/12 10:15:46;;;;;;;15.90;10.57;;;32.10;58.40;;;;;;5038299;28;20441;-71
2023/09/12 10:18:22;;;;;;;11.63;10.13;;;32.30;58.20;;;;;;5037842;28;20486;-71
2023/09/12 10:20:53;;;;;;;8.03;7.23;;;32.70;57.50;;;;;;5038803;28;20429;-71
2023/09/12 10:23:25;;;;;;;7.97;7.17;;;33.00;55.00;;;;;;5039159;28;20465;-71
2023/09/12 10:25:52;;;;;;;6.83;6.23;;;33.30;54.40;;;;;;5036273;28;20450;-71
2023/09/12 10:28:20;;;;;;;7.93;7.13;;;33.40;53.00;;;;;;5038929;28;20469;-71
2023/09/12 10:30:48;;;;;;;6.57;5.97;;;33.50;52.60;;;;;;5041730;28;20442;-71
2023/09/12 10:33:17;;;;;;;8.80;5.80;;;33.60;52.40;;;;;;5041983;28;20847;-71
2023/09/12 10:35:46;;;;;;;6.80;5.50;;;33.80;51.90;;;;;;5040465;28;20480;-72
2023/09/12 10:38:14;;;;;;;6.43;5.83;;;34.00;51.60;;;;;;5039893;28;20486;-71
2023/09/12 10:40:42;;;;;;;6.90;6.40;;;34.30;50.60;;;;;;5039027;28;20480;-72
2023/09/12 10:43:11;;;;;;;7.53;6.50;;;34.60;49.00;;;;;;5039349;28;20462;-71
2023/09/12 10:45:41;;;;;;;6.30;5.70;;;34.60;48.60;;;;;;5039176;28;20857;-71
2023/09/12 10:48:10;;;;;;;5.97;5.47;;;34.70;49.00;;;;;;5039235;28;20446;-72
2023/09/12 10:50:39;;;;;;;6.13;5.27;;;34.60;48.70;;;;;;5040029;28;20450;-71
2023/09/12 10:53:11;;;;;;;8.50;6.50;;;34.40;48.90;;;;;;5040529;28;21024;-71
2023/09/12 10:55:38;;;;;;;6.13;5.63;;;34.40;49.80;;;;;;5052492;28;20458;-71
2023/09/12 10:58:07;;;;;;;6.17;5.57;;;34.30;50.40;;;;;;5043972;28;20990;-72
2023/09/12 11:00:34;;;;;;;5.53;4.87;;;34.40;50.50;;;;;;5042362;28;20511;-70
2023/09/12 11:03:39;;;;;;;6.03;5.53;;;34.80;49.60;;;;;;5040204;28;20484;-71
2023/09/12 11:06:22;;;;;;;5.90;5.40;;;35.40;48.40;;;;;;5038295;28;20505;-71
2023/09/12 11:09:19;;;;;;;4.93;4.43;;;36.10;45.30;;;;;;5038627;28;20453;-71
2023/09/12 11:11:47;;;;;;;5.30;4.87;;;36.60;44.20;;;;;;5037963;28;20451;-71
2023/09/12 11:14:16;;;;;;;5.90;5.33;;;37.10;43.30;;;;;;5037935;28;20325;-70
2023/09/12 11:16:43;;;;;;;6.17;5.67;;;37.30;41.50;;;;;;5036693;28;20243;-69
2023/09/12 11:19:18;;;;;;;6.97;6.20;;;36.90;41.70;;;;;;5035221;28;20227;-70
2023/09/12 11:21:48;;;;;;;6.80;6.30;;;36.70;42.40;;;;;;5034918;28;20202;-70
2023/09/12 11:24:16;;;;;;;5.67;5.10;;;36.40;43.10;;;;;;5035503;28;20230;-69
2023/09/12 11:26:59;;;;;;;5.07;4.67;;;36.00;44.00;;;;;;5036861;28;20203;-70
2023/09/12 11:29:30;;;;;;;5.67;5.17;;;36.10;44.30;;;;;;5036594;28;20477;-68
2023/09/12 11:31:59;;;;;;;5.87;5.37;;;36.60;43.00;;;;;;5034561;28;20210;-68
2023/09/12 11:34:28;;;;;;;5.10;4.70;;;37.30;42.00;;;;;;5035710;28;20672;-68
2023/09/12 11:37:02;;;;;;;4.40;4.07;;;38.00;40.60;;;;;;5035552;28;20219;-68
2023/09/12 11:39:31;;;;;;;4.38;3.97;;;38.60;39.00;;;;;;5034855;28;20226;-68
2023/09/12 11:41:59;;;;;;;4.72;4.32;;;39.30;37.60;;;;;;5036279;28;20203;-70
2023/09/12 11:44:26;;;;;;;5.55;5.10;;;39.90;36.00;;;;;;5036311;28;20584;-69
2023/09/12 11:46:55;;;;;;;4.70;4.30;;;40.30;35.40;;;;;;5036064;28;20604;-70
2023/09/12 11:49:22;;;;;;;4.85;4.13;;;40.10;35.60;;;;;;5035779;28;20218;-70
2023/09/12 11:51:53;;;;;;;4.78;4.38;;;40.10;35.40;;;;;;5035089;28;20576;-70
2023/09/12 11:54:22;;;;;;;6.00;5.35;;;40.20;35.10;;;;;;5034734;28;20230;-70
2023/09/12 11:56:50;;;;;;;7.30;4.22;;;40.60;33.60;;;;;;5034953;28;20211;-70
2023/09/12 11:59:19;;;;;;;4.65;4.25;;;41.00;33.20;;;;;;5034433;28;20713;-70
2023/09/12 12:01:46;;;;;;;4.88;4.57;;;41.50;32.70;;;;;;5035543;28;20636;-70
2023/09/12 12:04:14;;;;;;;4.55;4.20;;;42.10;30.60;;;;;;5034068;28;20227;-70
2023/09/12 12:06:41;;;;;;;4.05;3.55;;;42.00;30.30;;;;;;5035356;28;20271;-70
2023/09/12 12:09:10;;;;;;;4.38;3.97;;;41.60;30.40;;;;;;5035788;28;20196;-69
2023/09/12 12:11:38;;;;;;;4.53;4.07;;;41.80;31.00;;;;;;5035502;28;20199;-70
2023/09/12 12:14:14;;;;;;;4.30;3.90;;;42.20;30.10;;;;;;5034617;28;20246;-69
2023/09/12 12:16:41;;;;;;;3.63;3.33;;;42.80;29.10;;;;;;5035434;28;20203;-70
2023/09/12 12:19:08;;;;;;;4.47;3.42;;;43.50;28.70;;;;;;5034815;28;20700;-70
2023/09/12 12:21:35;;;;;;;5.30;3.65;;;43.90;28.10;;;;;;5035291;28;20207;-69
2023/09/12 12:24:04;;;;;;;3.67;3.38;;;44.20;27.50;;;;;;5035388;28;20226;-69
2023/09/12 12:26:33;;;;;;;4.28;3.70;;;44.50;26.60;;;;;;5035918;28;20207;-70
2023/09/12 12:29:00;;;;;;;4.45;3.38;;;44.70;26.40;;;;;;5035647;28;20202;-71
2023/09/12 12:31:27;;;;;;;3.92;3.58;;;44.80;25.80;;;;;;5035112;28;20207;-70
2023/09/12 12:33:55;;;;;;;3.47;3.28;;;45.00;25.20;;;;;;5035105;28;20227;-70
2023/09/12 12:36:22;;;;;;;3.22;3.03;;;45.20;25.40;;;;;;5034665;28;20664;-70